Time;durP1;ratioP1;P1;durP2;ratioP2;P2;SDS_P1;SDS_P2;PMS_P1;PMS_P2;Temp;Humidity;BMP_temperature;BMP_pressure;BME280_temperature;BME280_humidity;BME280_pressure;Samples;Min_cycle;Max_cycle;Signal;HPM_P1;HPM_P2
2022/07/05 00:01:10;;;;;;;6.45;4.07;;;;;;;18.44;61.25;100473.44;5093314;28;20093;-57
2022/07/05 00:03:54;;;;;;;4.95;4.15;;;;;;;18.45;61.55;100474.28;5093397;28;20104;-57
2022/07/05 00:07:17;;;;;;;9.25;4.40;;;;;;;18.44;61.31;100470.81;5093239;28;20576;-57
2022/07/05 00:09:42;;;;;;;10.50;4.17;;;;;;;18.44;61.44;100468.19;5094039;28;20048;-57
2022/07/05 00:12:31;;;;;;;9.60;4.28;;;;;;;18.45;61.50;100469.06;5092298;28;20320;-57
2022/07/05 00:15:16;;;;;;;5.05;3.28;;;;;;;18.45;61.27;100464.66;5092129;28;20066;-57
2022/07/05 00:18:00;;;;;;;6.30;3.80;;;;;;;18.45;61.51;100463.81;5093301;28;20078;-57
2022/07/05 00:20:45;;;;;;;5.85;4.65;;;;;;;18.45;61.34;100469.06;5092202;28;20124;-57
2022/07/05 00:23:29;;;;;;;7.45;4.53;;;;;;;18.45;61.58;100474.28;5092594;28;20178;-57
2022/07/05 00:26:13;;;;;;;7.28;3.75;;;;;;;18.45;61.51;100469.91;5093608;28;20071;-58
2022/07/05 00:28:57;;;;;;;5.38;3.22;;;;;;;18.45;61.49;100467.28;5093084;28;20065;-58
2022/07/05 00:31:41;;;;;;;4.55;3.05;;;;;;;18.45;61.56;100464.66;5092322;28;20113;-58
2022/07/05 00:34:25;;;;;;;8.98;4.18;;;;;;;18.45;61.43;100464.66;5093087;28;20066;-57
2022/07/05 00:37:09;;;;;;;5.05;3.58;;;;;;;18.46;61.55;100455.03;5093134;28;20039;-57
2022/07/05 00:39:53;;;;;;;7.20;4.40;;;;;;;18.45;61.57;100461.19;5094316;28;20043;-57
2022/07/05 00:42:36;;;;;;;4.65;3.83;;;;;;;18.47;61.73;100459.41;5097230;28;20047;-57
2022/07/05 00:45:21;;;;;;;5.95;4.10;;;;;;;18.46;61.61;100457.66;5096922;28;20077;-59
2022/07/05 00:48:05;;;;;;;5.97;3.20;;;;;;;18.47;61.68;100457.63;5096665;28;20047;-57
2022/07/05 00:50:50;;;;;;;7.18;3.83;;;;;;;18.46;61.75;100457.66;5096383;28;20043;-58
2022/07/05 00:53:34;;;;;;;4.93;4.05;;;;;;;18.45;61.62;100464.66;5095732;28;20581;-57
2022/07/05 00:56:19;;;;;;;5.35;3.75;;;;;;;18.46;61.61;100468.16;5096804;28;20051;-59
2022/07/05 00:59:03;;;;;;;6.63;3.70;;;;;;;18.45;61.77;100462.03;5095980;28;20151;-59
2022/07/05 01:01:48;;;;;;;7.63;4.28;;;;;;;18.45;61.77;100466.44;5096785;28;20051;-58
2022/07/05 01:04:32;;;;;;;5.43;3.92;;;;;;;18.44;61.66;100462.06;5096500;28;20047;-59
2022/07/05 01:07:21;;;;;;;4.13;2.75;;;;;;;18.43;61.83;100461.19;5096340;28;20452;-58
2022/07/05 01:10:05;;;;;;;4.28;3.25;;;;;;;18.42;61.67;100462.09;5096677;28;20047;-59
2022/07/05 01:12:49;;;;;;;6.30;4.50;;;;;;;18.42;61.87;100464.72;5096517;28;20556;-59
2022/07/05 01:15:33;;;;;;;4.60;3.60;;;;;;;18.41;61.86;100455.94;5096746;28;20046;-59
2022/07/05 01:18:20;;;;;;;6.40;3.65;;;;;;;18.41;61.66;100460.34;5096880;28;20113;-59
2022/07/05 01:21:05;;;;;;;5.70;4.05;;;;;;;18.40;61.67;100458.59;5095077;28;20564;-58
2022/07/05 01:23:50;;;;;;;6.47;4.10;;;;;;;18.39;61.50;100456.88;5096134;28;20081;-57
2022/07/05 01:26:34;;;;;;;6.60;3.78;;;;;;;18.39;61.79;100460.34;5095592;28;20055;-59
2022/07/05 01:29:18;;;;;;;6.03;3.90;;;;;;;18.40;61.78;100455.97;5094903;28;20070;-58
2022/07/05 01:32:03;;;;;;;3.90;3.50;;;;;;;18.38;61.87;100461.22;5095634;28;20117;-58
2022/07/05 01:34:47;;;;;;;5.60;4.30;;;;;;;18.37;61.70;100456.00;5095919;28;20082;-59
2022/07/05 01:37:31;;;;;;;4.15;3.40;;;;;;;18.37;61.90;100450.75;5095852;28;20050;-59
2022/07/05 01:40:17;;;;;;;6.03;4.22;;;;;;;18.38;61.69;100452.50;5095354;28;20150;-59
2022/07/05 01:43:02;;;;;;;4.43;3.40;;;;;;;18.37;62.11;100448.13;5094625;28;20418;-59
2022/07/05 01:45:47;;;;;;;5.90;3.80;;;;;;;18.37;61.84;100446.38;5094961;28;20564;-59
2022/07/05 01:48:36;;;;;;;5.30;3.65;;;;;;;18.38;61.87;100452.50;5094712;28;20131;-59
2022/07/05 01:51:29;;;;;;;4.97;4.25;;;;;;;18.37;61.91;100451.59;5094345;28;20162;-59
2022/07/05 01:54:13;;;;;;;6.40;4.13;;;;;;;18.36;61.93;100455.16;5094012;28;20135;-59
2022/07/05 01:56:58;;;;;;;6.43;3.28;;;;;;;18.37;62.00;100453.38;5095358;28;20081;-59
2022/07/05 01:59:42;;;;;;;6.68;4.05;;;;;;;18.35;61.77;100452.53;5094313;28;20063;-59
2022/07/05 02:02:25;;;;;;;4.97;3.85;;;;;;;18.33;61.95;100455.16;5095216;28;20043;-58
2022/07/05 02:05:09;;;;;;;13.75;4.88;;;;;;;18.33;61.95;100447.31;5095331;28;20099;-57
2022/07/05 02:07:53;;;;;;;7.00;4.00;;;;;;;18.31;62.00;100441.19;5094986;28;20415;-57
2022/07/05 02:10:38;;;;;;;4.40;4.00;;;;;;;18.30;62.04;100451.69;5095558;28;20406;-60
2022/07/05 02:13:23;;;;;;;5.72;4.57;;;;;;;18.30;62.11;100449.06;5094573;28;20070;-58
2022/07/05 02:16:07;;;;;;;6.00;4.10;;;;;;;18.28;62.08;100448.22;5095526;28;20046;-57
2022/07/05 02:18:51;;;;;;;6.35;4.22;;;;;;;18.28;62.07;100449.09;5095929;28;20112;-59
2022/07/05 02:21:35;;;;;;;4.82;4.15;;;;;;;18.27;62.08;100449.97;5094928;28;20079;-59
2022/07/05 02:24:20;;;;;;;5.95;4.30;;;;;;;18.26;61.92;100453.47;5095097;28;20398;-59
2022/07/05 02:27:04;;;;;;;5.38;3.58;;;;;;;18.26;62.05;100453.47;5093725;28;20411;-58
2022/07/05 02:29:48;;;;;;;6.18;4.45;;;;;;;18.25;61.77;100457.88;5094941;28;20074;-57
2022/07/05 02:32:32;;;;;;;6.05;3.80;;;;;;;18.25;61.97;100457.88;5094950;28;20051;-57
2022/07/05 02:35:17;;;;;;;5.78;4.50;;;;;;;18.24;62.02;100453.50;5095071;28;20088;-59
2022/07/05 02:38:01;;;;;;;4.93;4.30;;;;;;;18.25;61.99;100462.22;5094526;28;20053;-58
2022/07/05 02:40:44;;;;;;;5.68;4.18;;;;;;;18.24;62.19;100465.72;5094521;28;20047;-59
2022/07/05 02:43:28;;;;;;;6.68;4.57;;;;;;;18.23;62.14;100464.00;5094252;28;20056;-58
2022/07/05 02:46:12;;;;;;;9.30;5.35;;;;;;;18.23;62.02;100464.00;5094714;28;20047;-57
2022/07/05 02:48:56;;;;;;;8.30;4.10;;;;;;;18.24;62.16;100465.72;5094489;28;20108;-59
2022/07/05 02:51:40;;;;;;;5.93;4.63;;;;;;;18.21;61.98;100466.63;5094143;28;20051;-59
2022/07/05 02:54:24;;;;;;;5.68;3.95;;;;;;;18.21;62.43;100457.91;5094572;28;20410;-59
2022/07/05 02:57:08;;;;;;;6.95;4.60;;;;;;;18.19;62.05;100463.16;5094621;28;20050;-58
2022/07/05 02:59:54;;;;;;;5.43;4.35;;;;;;;18.18;62.08;100464.03;5094618;28;20078;-58
2022/07/05 03:02:38;;;;;;;4.35;3.92;;;;;;;18.16;62.16;100465.81;5094051;28;20067;-59
2022/07/05 03:05:22;;;;;;;5.18;4.47;;;;;;;18.15;62.13;100464.06;5093600;28;20082;-59
2022/07/05 03:08:07;;;;;;;6.68;4.78;;;;;;;18.14;62.10;100462.31;5093983;28;20058;-58
2022/07/05 03:10:51;;;;;;;5.00;4.07;;;;;;;18.13;62.20;100452.75;5093449;28;20140;-59
2022/07/05 03:13:35;;;;;;;5.60;4.13;;;;;;;18.14;62.05;100464.09;5094129;28;20043;-59
2022/07/05 03:16:19;;;;;;;6.43;3.75;;;;;;;18.14;62.20;100459.69;5092777;28;20091;-59
2022/07/05 03:19:03;;;;;;;5.18;3.70;;;;;;;18.13;62.32;100460.59;5093902;28;20074;-58
2022/07/05 03:21:47;;;;;;;6.43;4.07;;;;;;;18.13;62.20;100464.97;5093990;28;20131;-59
2022/07/05 03:24:31;;;;;;;8.68;4.30;;;;;;;18.12;62.15;100474.59;5093792;28;20124;-59
2022/07/05 03:27:15;;;;;;;7.07;4.35;;;;;;;18.13;61.92;100478.06;5093469;28;20194;-58
2022/07/05 03:29:59;;;;;;;6.25;4.22;;;;;;;18.13;62.09;100480.69;5093780;28;20640;-59
2022/07/05 03:32:42;;;;;;;6.15;4.50;;;;;;;18.12;62.18;100474.59;5093681;28;20128;-59
2022/07/05 03:35:30;;;;;;;5.43;4.65;;;;;;;18.09;62.06;100477.25;5093172;28;20557;-59
2022/07/05 03:38:14;;;;;;;5.90;4.35;;;;;;;18.07;61.93;100479.84;5092492;28;20069;-58
2022/07/05 03:40:58;;;;;;;5.57;4.68;;;;;;;18.06;61.91;100469.38;5093854;28;20043;-58
2022/07/05 03:43:42;;;;;;;7.20;4.60;;;;;;;18.04;61.93;100473.78;5093889;28;20051;-58
2022/07/05 03:46:26;;;;;;;7.53;4.15;;;;;;;18.03;62.14;100472.03;5093617;28;20125;-59
2022/07/05 03:49:10;;;;;;;7.20;4.55;;;;;;;18.01;61.79;100477.31;5093391;28;20051;-58
2022/07/05 03:51:54;;;;;;;5.22;4.22;;;;;;;17.99;61.99;100480.78;5092811;28;20498;-58
2022/07/05 03:54:37;;;;;;;6.50;4.40;;;;;;;17.97;62.10;100475.53;5093694;28;20502;-58
2022/07/05 03:57:22;;;;;;;6.00;4.60;;;;;;;17.96;61.98;100466.81;5093890;28;20043;-58
2022/07/05 04:00:06;;;;;;;5.32;4.00;;;;;;;17.95;62.08;100472.94;5092365;28;20411;-59
2022/07/05 04:02:51;;;;;;;8.43;4.63;;;;;;;17.94;62.27;100468.59;5093765;28;20453;-58
2022/07/05 04:05:34;;;;;;;6.35;3.85;;;;;;;17.94;62.12;100470.31;5094214;28;20393;-59
2022/07/05 04:08:18;;;;;;;5.10;4.28;;;;;;;17.93;62.16;100472.09;5093550;28;20051;-58
2022/07/05 04:11:03;;;;;;;6.75;4.57;;;;;;;17.93;62.29;100477.34;5093580;28;20081;-58
2022/07/05 04:13:47;;;;;;;6.25;4.57;;;;;;;17.94;62.13;100478.19;5093473;28;20047;-59
2022/07/05 04:16:31;;;;;;;5.72;4.28;;;;;;;17.93;62.07;100474.72;5097383;28;20514;-58
2022/07/05 04:19:16;;;;;;;7.97;4.60;;;;;;;17.92;62.08;100477.31;5096790;28;20089;-58
2022/07/05 04:22:00;;;;;;;4.68;4.03;;;;;;;17.93;62.11;100479.06;5097140;28;20085;-59
2022/07/05 04:27:50;;;;;;;5.78;4.18;;;;;;;17.89;61.94;100478.22;5097005;28;20137;-58
2022/07/05 04:30:34;;;;;;;6.90;5.05;;;;;;;17.87;61.96;100477.38;5095971;28;20085;-59
2022/07/05 04:33:18;;;;;;;6.90;4.38;;;;;;;17.88;62.02;100488.72;5096003;28;20047;-59
2022/07/05 04:36:02;;;;;;;6.25;4.75;;;;;;;17.85;61.93;100489.59;5096088;28;20406;-58
2022/07/05 04:38:47;;;;;;;6.13;4.32;;;;;;;17.84;62.09;100485.25;5096832;28;20564;-58
2022/07/05 04:41:30;;;;;;;4.40;3.90;;;;;;;17.84;61.88;100495.72;5096960;28;20510;-58
2022/07/05 04:44:14;;;;;;;5.70;4.15;;;;;;;17.83;61.92;100496.59;5097340;28;20048;-58
2022/07/05 04:46:58;;;;;;;9.63;5.38;;;;;;;17.83;62.00;100499.22;5096056;28;20039;-59
2022/07/05 04:49:42;;;;;;;7.63;4.75;;;;;;;17.83;61.98;100501.00;5097003;28;20058;-58
2022/07/05 04:52:27;;;;;;;4.82;4.00;;;;;;;17.82;62.03;100500.13;5096581;28;20047;-57
2022/07/05 04:55:11;;;;;;;7.13;4.88;;;;;;;17.80;62.13;100502.75;5096054;28;20046;-57
2022/07/05 04:57:55;;;;;;;7.35;4.43;;;;;;;17.78;61.85;100501.03;5096778;28;20047;-59
2022/07/05 05:00:39;;;;;;;8.25;5.40;;;;;;;17.77;61.88;100502.75;5096833;28;20039;-59
2022/07/05 05:03:23;;;;;;;6.57;4.50;;;;;;;17.76;62.04;100505.41;5096150;28;20093;-57
2022/07/05 05:06:07;;;;;;;5.53;4.55;;;;;;;17.75;62.19;100506.28;5095374;28;20047;-59
2022/07/05 05:08:51;;;;;;;5.18;4.38;;;;;;;17.74;62.06;100510.69;5095901;28;20429;-58
2022/07/05 05:11:35;;;;;;;7.15;4.75;;;;;;;17.76;62.07;100513.28;5096804;28;20556;-58
2022/07/05 05:14:21;;;;;;;7.38;4.22;;;;;;;17.76;61.99;100511.50;5095951;28;20051;-57
2022/07/05 05:17:05;;;;;;;5.97;3.95;;;;;;;17.76;62.15;100513.28;5095632;28;20099;-58
2022/07/05 05:19:52;;;;;;;7.45;5.20;;;;;;;17.77;62.13;100515.00;5096324;28;20112;-59
2022/07/05 05:22:36;;;;;;;7.60;4.68;;;;;;;17.76;62.09;100513.28;5096459;28;20043;-58
2022/07/05 05:25:20;;;;;;;8.25;3.85;;;;;;;17.76;62.11;100521.13;5094473;28;20126;-58
2022/07/05 05:28:04;;;;;;;6.95;4.13;;;;;;;17.74;62.01;100518.53;5096030;28;20062;-59
2022/07/05 05:30:48;;;;;;;7.65;5.25;;;;;;;17.72;62.17;100520.28;5095761;28;20046;-57
2022/07/05 05:33:32;;;;;;;8.07;4.88;;;;;;;17.73;61.97;100521.16;5095910;28;20090;-59
2022/07/05 05:36:17;;;;;;;8.60;4.95;;;;;;;17.72;62.19;100517.69;5095485;28;20051;-59
2022/07/05 05:39:00;;;;;;;8.40;5.10;;;;;;;17.72;62.35;100520.28;5096316;28;20042;-59
2022/07/05 05:41:44;;;;;;;7.35;5.32;;;;;;;17.73;62.23;100522.03;5096124;28;20117;-59
2022/07/05 05:44:28;;;;;;;7.10;4.72;;;;;;;17.74;62.25;100517.66;5095878;28;20479;-58
2022/07/05 05:47:12;;;;;;;10.02;5.45;;;;;;;17.75;62.41;100527.25;5095377;28;20086;-59
2022/07/05 05:49:56;;;;;;;6.70;4.55;;;;;;;17.75;62.29;100522.00;5095237;28;20042;-59
2022/07/05 05:52:40;;;;;;;8.40;5.07;;;;;;;17.74;62.35;100521.16;5095348;28;20414;-59
2022/07/05 05:55:25;;;;;;;7.13;4.90;;;;;;;17.74;62.34;100536.00;5095314;28;20081;-59
2022/07/05 05:58:26;;;;;;;8.13;5.57;;;;;;;17.74;62.42;100528.13;5094345;28;20541;-59
2022/07/05 06:01:10;;;;;;;7.18;4.80;;;;;;;17.72;62.50;100538.63;5095599;28;20116;-59
2022/07/05 06:03:54;;;;;;;7.68;5.30;;;;;;;17.74;62.41;100544.75;5095113;28;20047;-59
2022/07/05 06:06:38;;;;;;;7.85;5.45;;;;;;;17.74;62.42;100549.09;5094936;28;20461;-59
2022/07/05 06:09:23;;;;;;;7.82;5.70;;;;;;;17.74;62.43;100552.63;5095114;28;20050;-59
2022/07/05 06:12:07;;;;;;;10.23;5.32;;;;;;;17.74;62.34;100557.84;5095455;28;20047;-59
2022/07/05 06:14:52;;;;;;;7.25;5.07;;;;;;;17.75;62.42;100550.84;5094177;28;20100;-57
2022/07/05 06:17:36;;;;;;;8.55;5.50;;;;;;;17.74;62.35;100551.72;5095264;28;20130;-59
2022/07/05 06:20:23;;;;;;;5.82;5.03;;;;;;;17.75;62.37;100549.09;5094258;28;20127;-57
2022/07/05 06:23:10;;;;;;;7.57;5.55;;;;;;;17.73;62.50;100553.50;5093871;28;20042;-58
2022/07/05 06:25:54;;;;;;;6.90;5.50;;;;;;;17.73;62.48;100548.25;5094766;28;20043;-57
2022/07/05 06:28:38;;;;;;;8.63;5.65;;;;;;;17.73;62.62;100552.59;5094943;28;20082;-58
2022/07/05 06:31:22;;;;;;;7.53;4.68;;;;;;;17.74;62.49;100557.84;5095257;28;20074;-58
2022/07/05 06:34:06;;;;;;;8.45;5.50;;;;;;;17.75;62.36;100556.09;5093573;28;20089;-57
2022/07/05 06:36:51;;;;;;;9.82;5.63;;;;;;;17.74;62.44;100554.34;5093995;28;20054;-58
2022/07/05 06:39:35;;;;;;;6.72;5.22;;;;;;;17.74;62.43;100557.84;5094581;28;20046;-57
2022/07/05 06:42:19;;;;;;;6.47;5.40;;;;;;;17.75;62.51;100561.34;5094774;28;20571;-57
2022/07/05 06:45:04;;;;;;;6.68;5.47;;;;;;;17.75;62.44;100556.94;5093981;28;20130;-57
2022/07/05 06:47:55;;;;;;;7.20;6.28;;;;;;;17.75;62.57;100566.56;5093794;28;20051;-58
2022/07/05 06:50:42;;;;;;;7.82;5.65;;;;;;;17.75;62.38;100562.19;5094346;28;20521;-58
2022/07/05 06:53:26;;;;;;;8.15;5.20;;;;;;;17.76;62.54;100566.56;5094176;28;20047;-57
2022/07/05 06:56:10;;;;;;;8.90;5.50;;;;;;;17.76;62.49;100568.31;5094246;28;20047;-58
2022/07/05 06:58:54;;;;;;;6.55;4.85;;;;;;;17.76;62.36;100563.94;5094631;28;20056;-59
2022/07/05 07:01:38;;;;;;;9.55;5.95;;;;;;;17.76;62.30;100565.69;5093700;28;20062;-58
2022/07/05 07:04:21;;;;;;;7.07;5.40;;;;;;;17.76;62.48;100573.56;5094670;28;20074;-59
2022/07/05 07:10:09;;;;;;;8.23;5.00;;;;;;;17.76;62.28;100566.56;5093265;28;20059;-59
2022/07/05 07:12:54;;;;;;;;;;;;;;;17.75;62.19;100563.97;5094437;28;20141;-59
2022/07/05 07:15:38;;;;;;;8.13;5.03;;;;;;;17.76;62.42;100569.19;5092876;28;19939;-58
2022/07/05 07:18:22;;;;;;;7.78;5.10;;;;;;;17.77;62.37;100567.44;5093952;28;20120;-59
2022/07/05 07:21:06;;;;;;;11.18;5.50;;;;;;;17.79;62.08;100573.56;5093845;28;20043;-58
2022/07/05 07:23:50;;;;;;;5.90;4.50;;;;;;;17.80;62.18;100564.81;5094233;28;20408;-58
2022/07/05 07:27:02;;;;;;;5.47;4.72;;;;;;;17.81;62.16;100571.81;5093885;28;20110;-58
2022/07/05 07:29:39;;;;;;;6.97;5.22;;;;;;;17.81;62.23;100580.53;5093748;28;20132;-57
2022/07/05 07:32:23;;;;;;;11.07;4.93;;;;;;;17.78;61.99;100580.53;5092547;28;20047;-58
2022/07/05 07:35:08;;;;;;;9.13;5.22;;;;;;;17.78;62.20;100591.00;5093607;28;20044;-57
2022/07/05 07:37:52;;;;;;;6.07;4.47;;;;;;;17.78;61.79;100587.53;5092641;28;20109;-57
2022/07/05 07:40:36;;;;;;;5.90;4.82;;;;;;;17.76;62.13;100586.66;5093749;28;20067;-57
2022/07/05 07:43:23;;;;;;;6.78;4.90;;;;;;;17.76;61.90;100589.28;5093892;28;20510;-59
2022/07/05 07:46:08;;;;;;;10.75;4.82;;;;;;;17.76;61.93;100584.91;5093916;28;20047;-57
2022/07/05 07:48:52;;;;;;;6.55;4.68;;;;;;;17.76;61.76;100592.78;5092752;28;20510;-58
2022/07/05 07:51:37;;;;;;;8.80;4.53;;;;;;;17.76;61.69;100587.53;5093358;28;20089;-58
2022/07/05 07:54:21;;;;;;;7.07;5.00;;;;;;;17.77;61.68;100591.91;5093430;28;20132;-57
2022/07/05 07:57:05;;;;;;;;;;;;;;;17.79;61.55;100595.38;5094248;28;20097;-57
2022/07/05 07:59:49;;;;;;;8.10;4.78;;;;;;;17.80;61.61;100601.50;5093883;28;19938;-57
2022/07/05 08:02:33;;;;;;;7.15;5.13;;;;;;;17.81;61.51;100595.41;5093339;28;20062;-58
2022/07/05 08:05:23;;;;;;;9.32;5.00;;;;;;;17.83;61.56;100606.72;5093615;28;20039;-58
2022/07/05 08:08:07;;;;;;;10.25;5.18;;;;;;;17.83;61.59;100596.22;5092590;28;20083;-57
2022/07/05 08:10:52;;;;;;;6.85;4.65;;;;;;;17.83;61.63;100596.22;5093025;28;20047;-57
2022/07/05 08:13:40;;;;;;;6.20;4.57;;;;;;;17.84;61.67;100597.13;5092609;28;20062;-58
2022/07/05 08:16:24;;;;;;;6.93;4.88;;;;;;;17.85;61.70;100598.84;5092632;28;20460;-57
2022/07/05 08:22:11;;;;;;;10.43;4.93;;;;;;;17.85;61.78;100604.97;5093588;28;20047;-58
2022/07/05 08:24:55;;;;;;;5.57;4.25;;;;;;;17.87;61.81;100597.09;5093294;28;20055;-59
2022/07/05 08:27:39;;;;;;;;;;;;;;;17.87;61.65;100602.34;5093399;28;20047;-59
2022/07/05 08:30:25;;;;;;;8.88;4.63;;;;;;;17.86;61.86;100597.97;5093134;28;19937;-59
2022/07/05 08:33:10;;;;;;;5.90;4.65;;;;;;;17.88;61.87;100601.47;5092485;28;20101;-59
2022/07/05 08:35:56;;;;;;;7.70;4.97;;;;;;;17.89;61.82;100598.84;5092988;28;20074;-59
2022/07/05 08:38:40;;;;;;;6.82;4.47;;;;;;;17.90;62.00;100592.72;5093119;28;20143;-59
2022/07/05 08:41:24;;;;;;;6.53;4.50;;;;;;;17.90;61.89;100597.94;5092670;28;20509;-59
2022/07/05 08:44:09;;;;;;;8.85;3.83;;;;;;;17.93;61.71;100599.69;5093079;28;20043;-59
2022/07/05 08:46:56;;;;;;;5.50;4.13;;;;;;;17.93;61.79;100595.31;5092905;28;20120;-59
2022/07/05 08:49:40;;;;;;;6.18;4.15;;;;;;;17.94;61.71;100597.06;5091836;28;20129;-59
2022/07/05 08:52:25;;;;;;;5.15;4.18;;;;;;;17.96;61.88;100603.19;5092555;28;20043;-59
2022/07/05 08:55:10;;;;;;;3.85;3.25;;;;;;;17.98;61.73;100602.34;5092358;28;20042;-59
2022/07/05 08:57:54;;;;;;;5.90;3.70;;;;;;;17.98;61.69;100603.19;5093227;28;20513;-60
2022/07/05 09:00:42;;;;;;;4.88;3.97;;;;;;;17.99;61.74;100599.69;5093852;28;20089;-59
2022/07/05 09:03:42;;;;;;;5.97;3.75;;;;;;;17.99;61.64;100599.69;5096740;28;20046;-59
2022/07/05 09:06:27;;;;;;;6.18;4.40;;;;;;;18.02;61.78;100604.91;5096078;28;20050;-59
2022/07/05 09:09:12;;;;;;;6.78;4.45;;;;;;;18.04;61.71;100602.28;5096446;28;20452;-59
2022/07/05 09:11:56;;;;;;;5.32;3.40;;;;;;;18.06;61.80;100603.16;5095370;28;20074;-59
2022/07/05 09:14:41;;;;;;;7.63;4.00;;;;;;;18.05;61.71;100602.28;5096124;28;20047;-59
2022/07/05 09:17:28;;;;;;;5.75;4.15;;;;;;;18.08;61.64;100597.00;5096330;28;20086;-58
2022/07/05 09:20:15;;;;;;;8.95;4.30;;;;;;;18.09;61.86;100587.41;5095530;28;20046;-57
2022/07/05 09:22:59;;;;;;;7.60;3.83;;;;;;;18.10;61.76;100590.00;5095025;28;20415;-58
2022/07/05 09:25:46;;;;;;;9.73;5.00;;;;;;;18.13;61.43;100593.47;5096395;28;20131;-58
2022/07/05 09:28:30;;;;;;;7.13;3.67;;;;;;;18.14;61.52;100593.47;5095494;28;20054;-58
2022/07/05 09:31:34;;;;;;;6.45;4.20;;;;;;;18.15;61.60;100592.56;5095607;28;20047;-58
2022/07/05 09:34:19;;;;;;;4.57;3.47;;;;;;;18.15;61.59;100589.09;5094976;28;20062;-58
2022/07/05 09:37:04;;;;;;;6.60;3.95;;;;;;;18.16;61.44;100589.06;5095761;28;20054;-57
2022/07/05 09:39:48;;;;;;;8.30;3.95;;;;;;;18.17;61.38;100600.47;5095642;28;20051;-57
2022/07/05 09:42:32;;;;;;;5.05;3.50;;;;;;;18.19;61.64;100596.94;5095871;28;20078;-58
2022/07/05 09:45:23;;;;;;;5.30;3.20;;;;;;;18.22;61.36;100606.53;5094880;28;20109;-57
2022/07/05 09:48:08;;;;;;;8.13;3.38;;;;;;;18.22;61.45;100603.91;5094994;28;20544;-57
2022/07/05 09:50:52;;;;;;;4.72;3.33;;;;;;;18.22;61.41;100604.78;5095304;28;20439;-58
2022/07/05 09:53:56;;;;;;;5.68;3.55;;;;;;;18.23;61.27;100603.91;5095488;28;20552;-59
2022/07/05 09:56:45;;;;;;;5.47;3.23;;;;;;;18.21;61.32;100608.28;5094538;28;20042;-59
2022/07/05 09:59:29;;;;;;;3.38;2.83;;;;;;;18.23;61.76;100601.28;5094620;28;20127;-59
2022/07/05 10:02:13;;;;;;;4.93;3.20;;;;;;;18.23;61.17;100600.41;5095629;28;20055;-58
2022/07/05 10:05:17;;;;;;;5.32;3.67;;;;;;;18.24;61.33;100605.66;5094537;28;20051;-58
2022/07/05 10:08:02;;;;;;;5.20;2.92;;;;;;;18.23;61.11;100600.41;5094651;28;20097;-59
2022/07/05 10:10:49;;;;;;;4.25;2.67;;;;;;;18.23;61.44;100601.28;5094619;28;20043;-57
2022/07/05 10:13:34;;;;;;;4.18;2.97;;;;;;;18.23;61.05;100605.66;5094031;28;20066;-59
2022/07/05 10:16:22;;;;;;;4.05;3.10;;;;;;;18.23;61.41;100603.03;5094303;28;20143;-59
2022/07/05 10:19:13;;;;;;;7.82;2.75;;;;;;;18.24;61.26;100603.03;5094036;28;20051;-59
2022/07/05 10:21:59;;;;;;;8.13;3.25;;;;;;;18.26;61.19;100605.63;5093895;28;20090;-59
2022/07/05 10:24:44;;;;;;;5.90;3.33;;;;;;;18.26;60.84;100590.78;5094376;28;20608;-58
2022/07/05 10:27:28;;;;;;;2.95;2.40;;;;;;;18.28;61.29;100605.63;5095356;28;20174;-58
2022/07/05 10:30:14;;;;;;;3.88;2.58;;;;;;;18.28;61.19;100603.00;5094731;28;20102;-58
2022/07/05 10:33:01;;;;;;;4.20;2.55;;;;;;;18.29;60.90;100613.50;5093502;28;20120;-58
2022/07/05 10:35:45;;;;;;;5.75;2.90;;;;;;;18.29;61.03;100610.00;5093864;28;20130;-58
2022/07/05 10:38:30;;;;;;;5.75;2.47;;;;;;;18.30;61.36;100612.59;5094365;28;20047;-59
2022/07/05 10:41:22;;;;;;;7.28;2.85;;;;;;;18.29;61.03;100615.25;5093617;28;20135;-59
2022/07/05 10:44:07;;;;;;;4.60;2.58;;;;;;;18.29;60.92;100610.00;5093572;28;20442;-57
2022/07/05 10:46:51;;;;;;;3.97;2.80;;;;;;;18.30;61.01;100609.97;5094492;28;20059;-58
2022/07/05 10:49:35;;;;;;;3.88;2.30;;;;;;;18.30;61.02;100614.34;5094761;28;20128;-58
2022/07/05 10:52:25;;;;;;;;;;;;;;;18.29;60.92;100610.00;5094917;28;20047;-57
2022/07/05 10:55:23;;;;;;;3.58;2.33;;;;;;;18.30;60.96;100617.84;5093363;28;19969;-58
2022/07/05 10:58:16;;;;;;;4.20;2.63;;;;;;;18.32;60.65;100615.22;5093530;28;20043;-59
2022/07/05 11:01:12;;;;;;;4.43;2.60;;;;;;;18.32;60.71;100607.34;5094701;28;20172;-57
2022/07/05 11:04:02;;;;;;;3.25;2.63;;;;;;;18.30;60.81;100607.34;5094443;28;20051;-58
2022/07/05 11:06:46;;;;;;;4.30;2.55;;;;;;;18.30;60.64;100609.09;5093041;28;20042;-58
2022/07/05 11:09:30;;;;;;;4.38;2.63;;;;;;;18.32;60.90;100602.09;5093867;28;20131;-58
2022/07/05 11:12:14;;;;;;;4.45;2.10;;;;;;;18.35;60.74;100599.44;5094300;28;20047;-59
2022/07/05 11:15:06;;;;;;;3.38;2.38;;;;;;;18.34;60.55;100603.84;5094188;28;20500;-58
2022/07/05 11:18:22;;;;;;;4.88;2.40;;;;;;;18.36;60.45;100603.81;5093367;28;20085;-58
2022/07/05 11:21:20;;;;;;;3.97;2.33;;;;;;;18.36;60.57;100596.84;5092825;28;20525;-57
2022/07/05 11:24:26;;;;;;;3.63;2.38;;;;;;;18.37;60.45;100590.66;5092835;28;20059;-57
2022/07/05 11:27:11;;;;;;;4.35;2.53;;;;;;;18.38;60.53;100594.19;5092751;28;20538;-57
2022/07/05 11:29:56;;;;;;;4.20;2.13;;;;;;;18.41;60.56;100596.78;5093014;28;20597;-59
2022/07/05 11:32:40;;;;;;;4.30;2.70;;;;;;;18.40;60.15;100588.03;5092716;28;20047;-59
2022/07/05 11:35:32;;;;;;;12.68;2.85;;;;;;;18.40;60.35;100588.03;5093763;28;20395;-58
2022/07/05 11:38:17;;;;;;;3.05;2.58;;;;;;;18.40;60.04;100590.66;5093518;28;20414;-58
2022/07/05 11:41:11;;;;;;;;;;;;;;;18.38;60.32;100583.69;5094424;28;20131;-58
2022/07/05 11:43:57;;;;;;;7.05;2.65;;;;;;;18.36;60.08;100585.44;5093901;28;19946;-59
2022/07/05 11:46:42;;;;;;;2.58;2.25;;;;;;;18.37;59.98;100581.94;5093109;28;20078;-57
2022/07/05 11:49:26;;;;;;;5.20;2.30;;;;;;;18.38;60.05;100583.69;5092455;28;20055;-57
2022/07/05 11:52:10;;;;;;;6.03;2.80;;;;;;;18.36;59.84;100575.84;5093814;28;20097;-56
2022/07/05 11:54:55;;;;;;;11.13;2.70;;;;;;;18.39;60.07;100580.19;5093698;28;20051;-58
2022/07/05 11:57:49;;;;;;;3.95;2.60;;;;;;;18.38;60.16;100571.44;5092395;28;20113;-58
2022/07/05 12:00:35;;;;;;;5.30;2.63;;;;;;;18.40;59.78;100577.53;5092719;28;20101;-57
2022/07/05 12:03:19;;;;;;;5.57;2.67;;;;;;;18.41;60.00;100573.19;5092541;28;20181;-58
2022/07/05 12:06:13;;;;;;;4.60;2.72;;;;;;;18.41;59.87;100578.44;5093279;28;20050;-59
2022/07/05 12:09:03;;;;;;;4.47;2.50;;;;;;;18.40;59.68;100572.28;5092484;28;20093;-58
2022/07/05 12:14:54;;;;;;;4.07;2.42;;;;;;;18.41;59.80;100581.06;5093129;28;20537;-58
2022/07/05 12:17:41;;;;;;;5.43;2.67;;;;;;;18.42;59.91;100575.78;5092456;28;20518;-58
2022/07/05 12:20:25;;;;;;;4.25;2.63;;;;;;;18.45;59.85;100574.00;5093667;28;20182;-59
2022/07/05 12:23:09;;;;;;;3.65;2.63;;;;;;;18.47;59.63;100578.34;5093717;28;20081;-58
2022/07/05 12:25:54;;;;;;;5.00;2.25;;;;;;;18.46;59.83;100579.22;5093358;28;20066;-58
2022/07/05 12:28:40;;;;;;;8.18;2.97;;;;;;;18.50;59.71;100577.47;5092358;28;20525;-59
2022/07/05 12:31:24;;;;;;;4.13;2.50;;;;;;;18.52;59.89;100573.94;5091842;28;20042;-59
2022/07/05 12:34:21;;;;;;;5.38;2.65;;;;;;;18.53;59.31;100577.47;5093405;28;20082;-57
2022/07/05 12:39:24;;;;;;;7.55;2.90;;;;;;;18.55;59.60;100580.91;5152968;27;20157;-57
2022/07/05 12:42:08;;;;;;;3.33;2.30;;;;;;;18.55;59.57;100581.81;5132284;28;20042;-58
2022/07/05 12:45:15;;;;;;;3.25;2.40;;;;;;;18.55;59.52;100581.81;5131916;27;20043;-57
2022/07/05 12:48:07;;;;;;;6.80;3.25;;;;;;;18.56;59.35;100573.03;5131769;28;20173;-57
2022/07/05 12:50:52;;;;;;;2.70;2.10;;;;;;;18.58;59.33;100580.03;5116364;28;20043;-57
2022/07/05 13:00:07;;;;;;;6.38;2.38;;;;;;;18.61;59.45;100566.91;5131428;28;20095;-57
2022/07/05 13:02:51;;;;;;;4.55;2.45;;;;;;;18.60;59.39;100568.63;5131864;27;20057;-57
2022/07/05 13:05:36;;;;;;;3.58;2.13;;;;;;;18.61;59.48;100573.00;5116283;28;20509;-57
2022/07/05 13:08:30;;;;;;;4.03;2.55;;;;;;;18.62;59.33;100574.75;5115899;28;20050;-57
2022/07/05 13:11:29;;;;;;;4.00;2.38;;;;;;;18.63;59.54;100566.00;5115671;28;20045;-58
2022/07/05 13:14:13;;;;;;;3.70;2.65;;;;;;;18.64;59.23;100566.84;5115930;28;20116;-59